Terminal Aerodrome Forecast
Issued by NWS Glasgow, MT

Home | Current Version | Previous Version | Text Only | Print | Product List | Glossary On
Versions: 1 2 3 4 5 6 7 8 9 10 11
362
FTUS45 KGGW 230534
TAFGGW
TAF
KGGW 230534Z 2306/2406 09020G27KT P6SM VCSH SCT030 OVC050
     FM230700 09018KT P6SM OVC030
     FM230900 10017KT P6SM BKN015
     FM231900 11017G25KT P6SM VCSH OVC022
     FM232100 11014G23KT P6SM VCSH OVC035
     FM240300 10010KT P6SM VCSH OVC017=

USA.gov is the U.S. government's official web portal to all federal, state and local government web resources and services.